Time;durP1;ratioP1;P1;durP2;ratioP2;P2;SDS_P1;SDS_P2;PMS_P1;PMS_P2;Temp;Humidity;BMP_temperature;BMP_pressure;BME280_temperature;BME280_humidity;BME280_pressure;Samples;Min_cycle;Max_cycle;Signal;HPM_P1;HPM_P2
2023/03/21 00:00:41;;;;;;;4.43;1.88;;;8.70;99.90;;;;;;4959703;28;20050;-78
2023/03/21 00:03:08;;;;;;;3.97;1.45;;;8.70;99.90;;;;;;4963762;28;20051;-77
2023/03/21 00:05:40;;;;;;;4.60;1.40;;;8.70;99.90;;;;;;4964191;28;20187;-78
2023/03/21 00:08:07;;;;;;;2.22;1.20;;;8.60;99.90;;;;;;4969577;28;20054;-78
2023/03/21 00:10:34;;;;;;;1.63;1.10;;;8.60;99.90;;;;;;4963889;28;20082;-77
2023/03/21 00:13:14;;;;;;;1.88;0.85;;;8.50;99.90;;;;;;4971016;28;20495;-78
2023/03/21 00:15:53;;;;;;;3.10;1.00;;;8.50;99.90;;;;;;4965068;28;20050;-78
2023/03/21 00:18:41;;;;;;;1.17;1.02;;;8.40;99.90;;;;;;4964585;28;20053;-78
2023/03/21 00:21:17;;;;;;;2.17;0.95;;;8.40;99.90;;;;;;4971572;28;20057;-78
2023/03/21 00:24:05;;;;;;;0.90;0.70;;;8.40;99.90;;;;;;4961711;28;20471;-78
2023/03/21 00:26:32;;;;;;;2.97;1.10;;;8.40;99.90;;;;;;4961270;28;20047;-77
2023/03/21 00:28:59;;;;;;;2.92;1.02;;;8.30;99.90;;;;;;4962799;28;20083;-78
2023/03/21 00:31:26;;;;;;;2.75;1.08;;;8.40;99.90;;;;;;4959837;28;20082;-78
2023/03/21 00:33:53;;;;;;;0.95;0.85;;;8.30;99.90;;;;;;4963332;28;20049;-78
2023/03/21 00:36:20;;;;;;;2.40;1.30;;;8.30;99.90;;;;;;4958649;28;20086;-78
2023/03/21 00:38:47;;;;;;;5.53;1.30;;;8.20;99.90;;;;;;4963266;28;20078;-78
2023/03/21 00:41:14;;;;;;;1.00;0.90;;;8.10;99.90;;;;;;4965467;28;20047;-78
2023/03/21 00:44:01;;;;;;;2.17;1.00;;;8.10;99.90;;;;;;4959893;28;20047;-78
2023/03/21 00:46:27;;;;;;;2.17;0.90;;;8.10;99.90;;;;;;4962147;28;20135;-78
2023/03/21 00:49:08;;;;;;;3.90;1.10;;;8.10;99.90;;;;;;4958194;28;20047;-77
2023/03/21 00:51:35;;;;;;;0.85;0.63;;;8.10;99.90;;;;;;4964342;28;20134;-78
2023/03/21 00:54:04;;;;;;;1.67;0.80;;;8.00;99.90;;;;;;4962171;28;20126;-78
2023/03/21 00:56:31;;;;;;;1.60;1.00;;;8.00;99.90;;;;;;4968107;28;20051;-78
2023/03/21 00:58:58;;;;;;;2.28;1.52;;;8.00;99.90;;;;;;4961845;28;20051;-78
2023/03/21 01:01:25;;;;;;;2.80;1.33;;;8.00;99.90;;;;;;4973327;28;20079;-78
2023/03/21 01:04:03;;;;;;;1.73;1.20;;;7.90;99.90;;;;;;4969593;28;20126;-77
2023/03/21 01:06:38;;;;;;;1.40;0.98;;;7.90;99.90;;;;;;4978752;28;20058;-78
2023/03/21 01:09:07;;;;;;;2.80;1.40;;;7.90;99.90;;;;;;4965341;28;20098;-78
2023/03/21 01:11:34;;;;;;;3.05;1.00;;;7.90;99.90;;;;;;4971396;28;20051;-78
2023/03/21 01:14:01;;;;;;;1.20;1.00;;;7.80;99.90;;;;;;4964280;28;20071;-78
2023/03/21 01:16:48;;;;;;;1.08;0.80;;;7.80;99.90;;;;;;4962716;28;20038;-78
2023/03/21 01:19:17;;;;;;;1.00;0.90;;;7.80;99.90;;;;;;4960834;28;20039;-78
2023/03/21 01:21:53;;;;;;;2.67;0.82;;;7.80;99.90;;;;;;4958803;28;20479;-78
2023/03/21 01:24:20;;;;;;;3.67;1.02;;;7.70;99.90;;;;;;4961505;28;20073;-78
2023/03/21 01:26:47;;;;;;;2.25;1.15;;;7.70;99.90;;;;;;4961924;28;20097;-76
2023/03/21 01:29:14;;;;;;;2.92;0.98;;;7.70;99.90;;;;;;4960524;28;20058;-78
2023/03/21 01:31:41;;;;;;;6.32;1.08;;;7.70;99.90;;;;;;4972304;28;20086;-77
2023/03/21 01:34:07;;;;;;;0.82;0.75;;;7.60;99.90;;;;;;4960882;28;20558;-78
2023/03/21 01:36:34;;;;;;;4.30;0.80;;;7.60;99.90;;;;;;4962083;28;20078;-78
2023/03/21 01:39:01;;;;;;;1.85;1.10;;;7.60;99.90;;;;;;4966400;28;20039;-78
2023/03/21 01:41:31;;;;;;;1.73;0.80;;;7.60;99.90;;;;;;4961311;28;20115;-78
2023/03/21 01:44:17;;;;;;;1.25;0.70;;;7.50;99.90;;;;;;4969123;28;20053;-77
2023/03/21 01:46:51;;;;;;;0.70;0.70;;;7.50;99.90;;;;;;4961174;28;20054;-78
2023/03/21 01:49:37;;;;;;;1.45;0.77;;;7.40;99.90;;;;;;4969423;28;20046;-77
2023/03/21 01:52:09;;;;;;;2.03;0.90;;;7.40;99.90;;;;;;4961911;28;20082;-78
2023/03/21 01:54:43;;;;;;;2.53;1.02;;;7.40;99.90;;;;;;4967778;28;20089;-77
2023/03/21 01:57:34;;;;;;;2.10;1.30;;;7.40;99.90;;;;;;4955618;28;20501;-77
2023/03/21 02:00:14;;;;;;;1.58;0.98;;;7.40;99.90;;;;;;4958879;28;20047;-77
2023/03/21 02:02:49;;;;;;;1.23;0.90;;;7.30;99.90;;;;;;4963902;28;20137;-78
2023/03/21 02:05:24;;;;;;;1.30;0.90;;;7.30;99.90;;;;;;4959963;28;20099;-78
2023/03/21 02:07:51;;;;;;;3.83;1.10;;;7.30;99.90;;;;;;4979236;28;20050;-78
2023/03/21 02:10:18;;;;;;;1.50;1.08;;;7.30;99.90;;;;;;4958924;28;20045;-78
2023/03/21 02:12:45;;;;;;;3.67;0.93;;;7.20;99.90;;;;;;4962446;28;20554;-78
2023/03/21 02:15:13;;;;;;;2.70;1.10;;;7.20;99.90;;;;;;4963663;28;20050;-78
2023/03/21 02:18:00;;;;;;;0.80;0.75;;;7.20;99.90;;;;;;4962732;28;20419;-77
2023/03/21 02:21:00;;;;;;;1.73;1.00;;;7.20;99.90;;;;;;4973222;28;20586;-78
2023/03/21 02:24:11;;;;;;;2.33;1.08;;;7.20;99.90;;;;;;4962825;28;20051;-77
2023/03/21 02:27:11;;;;;;;3.00;1.02;;;7.20;99.90;;;;;;4973008;28;20054;-78
2023/03/21 02:29:49;;;;;;;1.00;0.90;;;7.10;99.90;;;;;;4972041;28;20046;-78
2023/03/21 02:32:34;;;;;;;0.85;0.75;;;7.10;99.90;;;;;;4990994;28;20030;-78
2023/03/21 02:35:15;;;;;;;2.63;1.00;;;7.10;99.90;;;;;;4978566;28;20047;-78
2023/03/21 02:38:08;;;;;;;1.05;0.82;;;7.10;99.90;;;;;;4984374;28;20045;-78
2023/03/21 02:40:57;;;;;;;1.17;1.00;;;7.10;99.90;;;;;;5001685;28;20059;-78
2023/03/21 02:43:53;;;;;;;3.95;1.17;;;7.00;99.90;;;;;;4976195;28;20051;-77
2023/03/21 02:46:27;;;;;;;2.55;1.00;;;7.00;99.90;;;;;;4962291;28;20154;-78
2023/03/21 02:49:15;;;;;;;1.95;0.93;;;7.00;99.90;;;;;;4961331;28;20079;-78
2023/03/21 02:51:44;;;;;;;1.38;0.88;;;7.00;99.90;;;;;;4962285;28;20049;-78
2023/03/21 02:54:21;;;;;;;2.25;1.15;;;6.90;99.90;;;;;;4957820;28;20049;-78
2023/03/21 02:57:03;;;;;;;2.38;0.90;;;6.90;99.90;;;;;;4960601;28;20047;-77
2023/03/21 02:59:30;;;;;;;1.80;0.90;;;6.90;99.90;;;;;;4960483;28;20054;-77
2023/03/21 03:01:59;;;;;;;2.38;1.10;;;6.90;99.90;;;;;;4962456;28;20113;-77
2023/03/21 03:04:27;;;;;;;5.20;1.10;;;6.90;99.90;;;;;;4962274;28;20048;-77
2023/03/21 03:07:13;;;;;;;1.90;1.00;;;6.90;99.90;;;;;;4960011;28;20043;-78
2023/03/21 03:10:11;;;;;;;1.10;1.00;;;6.90;99.90;;;;;;4962189;28;20073;-77
2023/03/21 03:12:48;;;;;;;2.17;1.15;;;6.80;99.90;;;;;;4960630;28;20043;-78
2023/03/21 03:15:20;;;;;;;4.78;2.00;;;6.80;99.90;;;;;;4961328;28;20050;-77
2023/03/21 03:17:54;;;;;;;4.82;1.83;;;6.80;99.90;;;;;;4957901;28;20423;-77
2023/03/21 03:20:20;;;;;;;4.97;2.75;;;6.80;99.90;;;;;;4961275;28;20082;-78
2023/03/21 03:23:26;;;;;;;5.43;2.30;;;6.70;99.90;;;;;;4959986;28;20129;-77
2023/03/21 03:26:07;;;;;;;1.17;0.98;;;6.70;99.90;;;;;;4971106;28;20054;-78
2023/03/21 03:28:39;;;;;;;3.65;2.10;;;6.70;99.90;;;;;;4962984;28;20109;-78
2023/03/21 03:31:11;;;;;;;3.95;2.58;;;6.70;99.90;;;;;;4964090;28;20057;-77
2023/03/21 03:33:44;;;;;;;6.22;2.83;;;6.70;99.90;;;;;;4959332;28;20043;-78
2023/03/21 03:36:14;;;;;;;2.42;1.52;;;6.70;99.90;;;;;;4957465;28;20055;-77
2023/03/21 03:38:59;;;;;;;3.30;1.20;;;6.70;99.90;;;;;;4978074;28;20051;-77
2023/03/21 03:41:27;;;;;;;1.55;1.30;;;6.70;99.90;;;;;;4958400;28;20047;-78
2023/03/21 03:44:00;;;;;;;1.45;1.05;;;6.60;99.90;;;;;;4953331;28;20051;-78
2023/03/21 03:46:34;;;;;;;1.17;1.00;;;6.60;99.90;;;;;;4970858;28;20053;-77
2023/03/21 03:49:08;;;;;;;2.67;1.40;;;6.60;99.90;;;;;;4962624;28;20073;-78
2023/03/21 03:52:05;;;;;;;1.45;1.05;;;6.60;99.90;;;;;;4958667;28;20062;-78
2023/03/21 03:54:42;;;;;;;2.67;1.25;;;6.60;99.90;;;;;;4972325;28;20043;-78
2023/03/21 03:57:11;;;;;;;2.35;1.17;;;6.60;99.90;;;;;;4966787;28;20047;-78
2023/03/21 03:59:40;;;;;;;4.13;1.20;;;6.60;99.90;;;;;;4964693;28;20601;-77
2023/03/21 04:02:07;;;;;;;2.25;1.30;;;6.60;99.90;;;;;;4970958;28;20062;-77
2023/03/21 04:04:35;;;;;;;4.28;1.58;;;6.60;99.90;;;;;;4965108;28;20059;-78
2023/03/21 04:07:02;;;;;;;2.25;1.35;;;6.50;99.90;;;;;;4968833;28;20043;-78
2023/03/21 04:09:29;;;;;;;2.95;1.40;;;6.50;99.90;;;;;;4957681;28;20051;-78
2023/03/21 04:12:11;;;;;;;2.30;1.25;;;6.50;99.90;;;;;;4962427;28;20101;-78
2023/03/21 04:14:38;;;;;;;2.80;1.20;;;6.50;99.90;;;;;;4961338;28;20047;-78
2023/03/21 04:17:12;;;;;;;2.10;1.35;;;6.50;99.90;;;;;;4962378;28;20054;-77
2023/03/21 04:19:39;;;;;;;4.95;2.28;;;6.50;99.90;;;;;;4961898;28;20046;-78
2023/03/21 04:22:06;;;;;;;1.95;1.35;;;6.50;99.90;;;;;;4962173;28;20045;-77
2023/03/21 04:24:33;;;;;;;2.78;1.45;;;6.50;99.90;;;;;;4959454;28;20051;-78
2023/03/21 04:26:59;;;;;;;3.50;1.75;;;6.50;99.90;;;;;;4972191;28;20571;-77
2023/03/21 04:29:28;;;;;;;6.07;1.88;;;6.50;99.90;;;;;;4964212;28;20418;-77
2023/03/21 04:31:55;;;;;;;3.50;2.00;;;6.50;99.90;;;;;;4962855;28;20094;-77
2023/03/21 04:34:27;;;;;;;3.10;1.85;;;6.50;99.90;;;;;;4960878;28;20460;-77
2023/03/21 04:36:54;;;;;;;6.65;1.70;;;6.50;99.90;;;;;;4959608;28;20051;-77
2023/03/21 04:39:23;;;;;;;1.23;1.10;;;6.50;99.90;;;;;;4965582;28;20434;-78
2023/03/21 04:41:50;;;;;;;4.45;1.30;;;6.50;99.90;;;;;;4958453;28;20131;-78
2023/03/21 04:44:17;;;;;;;4.07;1.30;;;6.40;99.90;;;;;;4962796;28;20061;-77
2023/03/21 04:46:44;;;;;;;3.25;1.42;;;6.40;99.90;;;;;;4963691;28;20494;-77
2023/03/21 04:49:10;;;;;;;2.05;1.42;;;6.40;99.90;;;;;;4963014;28;20049;-78
2023/03/21 04:51:37;;;;;;;2.00;1.23;;;6.40;99.90;;;;;;4964190;28;20047;-77
2023/03/21 04:54:04;;;;;;;4.55;1.30;;;6.40;99.90;;;;;;4962946;28;20078;-78
2023/03/21 04:56:32;;;;;;;3.15;1.40;;;6.40;99.90;;;;;;4959842;28;20059;-78
2023/03/21 04:59:02;;;;;;;2.90;1.25;;;6.40;99.90;;;;;;4962331;28;20081;-78
2023/03/21 05:01:29;;;;;;;1.98;1.40;;;6.40;99.90;;;;;;4960064;28;20052;-78
2023/03/21 05:04:00;;;;;;;3.42;1.17;;;6.30;99.90;;;;;;4977116;28;20118;-78
2023/03/21 05:06:28;;;;;;;1.95;1.17;;;6.30;99.90;;;;;;4958779;28;20140;-78
2023/03/21 05:08:58;;;;;;;3.92;1.50;;;6.30;99.90;;;;;;4960817;28;20565;-78
2023/03/21 05:11:26;;;;;;;3.53;1.33;;;6.30;99.90;;;;;;4958013;28;20086;-78
2023/03/21 05:13:53;;;;;;;5.10;1.85;;;6.30;99.90;;;;;;4961447;28;20046;-76
2023/03/21 05:16:24;;;;;;;3.70;1.30;;;6.30;99.90;;;;;;4957923;28;20057;-77
2023/03/21 05:18:53;;;;;;;2.38;1.40;;;6.30;99.90;;;;;;4979740;28;20054;-76
2023/03/21 05:21:21;;;;;;;4.43;1.30;;;6.30;99.90;;;;;;4957489;28;20055;-77
2023/03/21 05:23:53;;;;;;;4.35;1.77;;;6.30;99.90;;;;;;4965106;28;20046;-78
2023/03/21 05:26:23;;;;;;;6.03;2.38;;;6.30;99.90;;;;;;4957296;28;20075;-78
2023/03/21 05:28:50;;;;;;;;;;;6.30;99.90;;;;;;4960901;28;20051;-78
2023/03/21 05:31:18;;;;;;;2.58;1.45;;;6.20;99.90;;;;;;4956788;28;20017;-78
2023/03/21 05:33:45;;;;;;;8.52;1.50;;;6.20;99.90;;;;;;4960424;28;20042;-78
2023/03/21 05:36:12;;;;;;;2.60;1.40;;;6.20;99.90;;;;;;4972940;28;20050;-76
2023/03/21 05:38:44;;;;;;;3.97;1.52;;;6.20;99.90;;;;;;4960310;28;20418;-77
2023/03/21 05:41:12;;;;;;;1.88;1.52;;;6.20;99.90;;;;;;4956877;28;20134;-77
2023/03/21 05:43:40;;;;;;;2.17;1.20;;;6.20;99.90;;;;;;4958911;28;20050;-77
2023/03/21 05:46:07;;;;;;;3.70;1.27;;;6.30;99.90;;;;;;4968765;28;20047;-77
2023/03/21 05:48:34;;;;;;;3.58;1.58;;;6.20;99.90;;;;;;4959673;28;20087;-76
2023/03/21 05:51:02;;;;;;;4.57;1.58;;;6.20;99.90;;;;;;4957101;28;20062;-77
2023/03/21 05:53:29;;;;;;;2.47;1.42;;;6.30;99.90;;;;;;4957762;28;20138;-77
2023/03/21 05:55:56;;;;;;;3.58;1.77;;;6.30;99.90;;;;;;4963590;28;20062;-78
2023/03/21 05:58:23;;;;;;;2.15;1.40;;;6.30;99.90;;;;;;4958726;28;20077;-77
2023/03/21 06:00:49;;;;;;;2.83;2.15;;;6.30;99.90;;;;;;4961829;28;20050;-78
2023/03/21 06:03:16;;;;;;;6.32;2.38;;;6.30;99.90;;;;;;4958403;28;20143;-77
2023/03/21 06:05:43;;;;;;;5.13;2.05;;;6.30;99.90;;;;;;4962453;28;20043;-77
2023/03/21 06:08:09;;;;;;;5.80;2.90;;;6.30;99.90;;;;;;4958207;28;20514;-77
2023/03/21 06:10:36;;;;;;;5.32;3.70;;;6.30;99.90;;;;;;4961012;28;20524;-77
2023/03/21 06:13:03;;;;;;;3.20;2.10;;;6.30;99.90;;;;;;4956871;28;20047;-77
2023/03/21 06:15:30;;;;;;;7.10;2.90;;;6.40;99.90;;;;;;4965848;28;20496;-77
2023/03/21 06:17:57;;;;;;;4.80;1.90;;;6.50;99.90;;;;;;4957438;28;20122;-77
2023/03/21 06:20:23;;;;;;;4.35;1.90;;;6.50;99.90;;;;;;4965419;28;20054;-77
2023/03/21 06:22:50;;;;;;;4.25;2.28;;;6.60;99.90;;;;;;4957071;28;20047;-77
2023/03/21 06:25:17;;;;;;;2.53;1.88;;;6.60;99.90;;;;;;4959089;28;20050;-77
2023/03/21 06:27:43;;;;;;;3.08;2.17;;;6.70;99.90;;;;;;4967651;28;20046;-77
2023/03/21 06:30:11;;;;;;;3.13;2.50;;;6.70;99.90;;;;;;4958344;28;20058;-77
2023/03/21 06:32:37;;;;;;;5.20;2.50;;;6.80;99.90;;;;;;4955099;28;20097;-77
2023/03/21 06:35:05;;;;;;;4.22;2.60;;;6.90;99.90;;;;;;4973026;28;20448;-77
2023/03/21 06:37:32;;;;;;;5.30;3.25;;;6.90;99.90;;;;;;4956679;28;20057;-77
2023/03/21 06:39:58;;;;;;;4.20;3.20;;;7.00;99.90;;;;;;4974439;28;20061;-78
2023/03/21 06:42:25;;;;;;;3.63;3.10;;;7.10;99.90;;;;;;4956927;28;20055;-78
2023/03/21 06:44:52;;;;;;;3.70;1.90;;;7.10;99.90;;;;;;4960922;28;20047;-78
2023/03/21 06:47:18;;;;;;;5.88;2.28;;;7.10;99.90;;;;;;4954552;28;20050;-77
2023/03/21 06:49:45;;;;;;;6.28;2.05;;;7.00;99.90;;;;;;4960924;28;20054;-77
2023/03/21 06:52:12;;;;;;;2.78;1.90;;;7.10;99.90;;;;;;4953958;28;20054;-78
2023/03/21 06:54:39;;;;;;;2.55;1.98;;;7.10;99.90;;;;;;4961611;28;20050;-77
2023/03/21 06:57:05;;;;;;;5.20;2.50;;;7.10;99.90;;;;;;4958777;28;20126;-77
2023/03/21 06:59:32;;;;;;;2.78;1.60;;;7.20;99.90;;;;;;4962986;28;20051;-77
2023/03/21 07:01:59;;;;;;;2.08;1.70;;;7.30;99.90;;;;;;4958767;28;20047;-76
2023/03/21 07:04:25;;;;;;;2.35;1.50;;;7.40;99.90;;;;;;4963502;28;20439;-76
2023/03/21 07:06:53;;;;;;;2.60;1.92;;;7.50;99.90;;;;;;4958287;28;20451;-77
2023/03/21 07:09:23;;;;;;;7.30;2.10;;;7.60;99.90;;;;;;4958056;28;20090;-77
2023/03/21 07:11:52;;;;;;;;;;;7.70;99.90;;;;;;4956577;28;20566;-77
2023/03/21 07:14:19;;;;;;;8.93;4.53;;;7.80;99.90;;;;;;4956924;28;19927;-77
2023/03/21 07:16:45;;;;;;;4.65;2.33;;;7.90;99.90;;;;;;4959759;28;20129;-77
2023/03/21 07:19:12;;;;;;;2.63;2.10;;;8.00;99.90;;;;;;4956131;28;20087;-77
2023/03/21 07:21:39;;;;;;;2.47;1.80;;;8.10;99.90;;;;;;4951190;28;20431;-76
2023/03/21 07:24:06;;;;;;;4.38;2.05;;;8.20;99.90;;;;;;4968614;28;20123;-77
2023/03/21 07:26:33;;;;;;;4.78;2.10;;;8.30;99.90;;;;;;4955517;28;20508;-77
2023/03/21 07:29:00;;;;;;;4.78;2.55;;;8.40;99.90;;;;;;4973048;28;20127;-78
2023/03/21 07:31:26;;;;;;;4.45;2.03;;;8.40;99.90;;;;;;4956943;28;20047;-77
2023/03/21 07:33:53;;;;;;;3.63;2.30;;;8.50;99.90;;;;;;4957211;28;20039;-78
2023/03/21 07:36:20;;;;;;;5.03;2.30;;;8.60;99.90;;;;;;4962877;28;20055;-78
2023/03/21 07:38:47;;;;;;;5.97;2.25;;;8.60;99.90;;;;;;4957769;28;20083;-77
2023/03/21 07:41:14;;;;;;;2.92;2.30;;;8.70;99.90;;;;;;4963308;28;20060;-77
2023/03/21 07:43:42;;;;;;;3.78;2.17;;;8.70;99.90;;;;;;4958501;28;20126;-77
2023/03/21 07:46:08;;;;;;;4.93;2.58;;;8.80;99.90;;;;;;4963781;28;20043;-78
2023/03/21 07:48:36;;;;;;;2.33;1.92;;;8.80;99.90;;;;;;4959143;28;20051;-77
2023/03/21 07:51:05;;;;;;;4.68;2.58;;;8.90;99.90;;;;;;4961585;28;20047;-78
2023/03/21 07:53:32;;;;;;;4.32;2.05;;;9.00;99.90;;;;;;4956866;28;20050;-77
2023/03/21 07:55:58;;;;;;;6.00;2.47;;;9.10;99.90;;;;;;4960594;28;20491;-78
2023/03/21 07:58:26;;;;;;;5.95;2.80;;;9.10;99.90;;;;;;4957898;28;20051;-79
2023/03/21 08:00:55;;;;;;;5.35;2.10;;;9.10;99.90;;;;;;4971715;28;20043;-76
2023/03/21 08:03:22;;;;;;;5.95;2.35;;;9.20;99.90;;;;;;4956997;28;20423;-76
2023/03/21 08:05:49;;;;;;;5.05;2.25;;;9.20;99.90;;;;;;4953788;28;20513;-79
2023/03/21 08:08:16;;;;;;;4.53;2.10;;;9.20;99.90;;;;;;4964545;28;20039;-81
2023/03/21 08:10:43;;;;;;;3.60;2.17;;;9.10;99.90;;;;;;4958528;28;20182;-79
2023/03/21 08:13:10;;;;;;;5.40;2.08;;;9.20;99.90;;;;;;4973036;28;20043;-76
2023/03/21 08:15:38;;;;;;;2.78;2.08;;;9.30;99.90;;;;;;4954843;28;20061;-78
2023/03/21 08:18:05;;;;;;;4.18;2.58;;;9.40;99.90;;;;;;4961544;28;20105;-77
2023/03/21 08:20:32;;;;;;;6.07;2.58;;;9.50;99.90;;;;;;4961516;28;20066;-78
2023/03/21 08:22:58;;;;;;;4.22;2.67;;;9.50;99.90;;;;;;4988080;28;20050;-79
2023/03/21 08:25:25;;;;;;;5.05;3.05;;;9.60;99.90;;;;;;4957747;28;20051;-78
2023/03/21 08:27:52;;;;;;;3.25;2.40;;;9.60;99.90;;;;;;4958451;28;20042;-78
2023/03/21 08:30:27;;;;;;;3.88;2.20;;;9.70;99.90;;;;;;4956079;28;20047;-76
2023/03/21 08:32:58;;;;;;;2.50;2.20;;;9.80;99.90;;;;;;4961694;28;20065;-77
2023/03/21 08:35:28;;;;;;;6.07;2.65;;;9.90;99.90;;;;;;4962021;28;20163;-77
2023/03/21 08:37:55;;;;;;;2.80;2.50;;;9.90;99.90;;;;;;4956958;28;20043;-76
2023/03/21 08:40:21;;;;;;;3.83;2.65;;;10.00;99.90;;;;;;4970248;28;20058;-77
2023/03/21 08:42:48;;;;;;;5.50;3.13;;;10.10;99.90;;;;;;4968341;28;20090;-77
2023/03/21 08:45:16;;;;;;;7.13;3.22;;;10.10;99.90;;;;;;4955862;28;20152;-77
2023/03/21 08:47:43;;;;;;;6.93;3.25;;;10.20;99.90;;;;;;4953330;28;20415;-77
2023/03/21 08:50:13;;;;;;;10.23;3.63;;;10.30;99.90;;;;;;4953965;28;20047;-77
2023/03/21 08:52:40;;;;;;;9.02;3.88;;;10.30;99.90;;;;;;4951056;28;20043;-77
2023/03/21 08:55:09;;;;;;;6.07;3.08;;;10.40;99.90;;;;;;4968359;28;20043;-77
2023/03/21 08:57:36;;;;;;;4.82;2.50;;;10.40;99.90;;;;;;4962417;28;20134;-78
2023/03/21 09:00:13;;;;;;;6.15;3.35;;;10.50;99.90;;;;;;4956311;28;20058;-77
2023/03/21 09:02:41;;;;;;;4.35;2.97;;;10.50;99.90;;;;;;4951612;28;20134;-78
2023/03/21 09:05:10;;;;;;;4.75;3.70;;;10.60;99.90;;;;;;4957726;28;21220;-76
2023/03/21 09:07:41;;;;;;;5.60;4.00;;;10.70;99.90;;;;;;4957377;28;20153;-77
2023/03/21 09:10:10;;;;;;;;;;;10.70;99.90;;;;;;4954556;28;20728;-78
2023/03/21 09:12:53;;;;;;;4.53;2.80;;;10.80;99.90;;;;;;4958987;28;20025;-78
2023/03/21 09:15:23;;;;;;;3.50;2.90;;;10.80;99.90;;;;;;4955168;28;20046;-78
2023/03/21 09:17:51;;;;;;;6.88;2.55;;;10.80;99.90;;;;;;4974480;28;20154;-78
2023/03/21 09:20:24;;;;;;;3.83;2.90;;;10.90;99.90;;;;;;4963271;28;20060;-76
2023/03/21 09:22:52;;;;;;;4.03;2.60;;;10.90;99.90;;;;;;4959458;28;20114;-78
2023/03/21 09:25:20;;;;;;;5.25;2.60;;;10.90;99.90;;;;;;4950541;28;20061;-77
2023/03/21 09:27:47;;;;;;;5.60;2.60;;;11.00;99.90;;;;;;4957425;28;20075;-78
2023/03/21 09:30:16;;;;;;;3.40;2.15;;;10.90;99.90;;;;;;4950428;28;20043;-78
2023/03/21 09:32:47;;;;;;;4.60;2.50;;;11.00;99.90;;;;;;4957932;28;20053;-78
2023/03/21 09:35:16;;;;;;;2.60;2.40;;;11.00;99.90;;;;;;4951256;28;20047;-78
2023/03/21 09:37:44;;;;;;;3.70;2.50;;;11.10;99.90;;;;;;4960915;28;20054;-77
2023/03/21 09:40:27;;;;;;;5.90;2.50;;;11.10;99.90;;;;;;4953053;28;20065;-77
2023/03/21 09:43:05;;;;;;;4.75;2.65;;;11.10;99.90;;;;;;4955592;28;20054;-77
2023/03/21 09:45:46;;;;;;;9.35;2.53;;;11.20;99.90;;;;;;4950437;28;20695;-77
2023/03/21 09:48:45;;;;;;;3.47;2.22;;;11.20;99.90;;;;;;4954680;28;20062;-76
2023/03/21 09:51:33;;;;;;;5.30;2.53;;;11.30;99.90;;;;;;4956901;28;20043;-77
2023/03/21 09:54:07;;;;;;;5.65;2.35;;;11.30;99.90;;;;;;4950581;28;20569;-77
2023/03/21 09:56:37;;;;;;;3.00;2.25;;;11.40;99.90;;;;;;4953334;28;20078;-77
2023/03/21 09:59:07;;;;;;;5.75;2.50;;;11.40;99.90;;;;;;4971412;28;20500;-75
2023/03/21 10:01:40;;;;;;;5.45;2.30;;;11.40;99.90;;;;;;4956328;28;20485;-77
2023/03/21 10:04:12;;;;;;;6.68;2.42;;;11.40;99.90;;;;;;4960302;28;20048;-76
2023/03/21 10:06:41;;;;;;;5.78;3.30;;;11.40;99.90;;;;;;4957520;28;20134;-77
2023/03/21 10:09:21;;;;;;;5.95;3.05;;;11.50;99.90;;;;;;4963393;28;20404;-77
2023/03/21 10:11:54;;;;;;;5.95;3.28;;;11.50;99.90;;;;;;4956093;28;20047;-77
2023/03/21 10:14:21;;;;;;;6.80;3.00;;;11.60;99.90;;;;;;4967244;28;20063;-77
2023/03/21 10:16:52;;;;;;;2.92;2.42;;;11.60;99.90;;;;;;4958636;28;20514;-77
2023/03/21 10:19:19;;;;;;;4.45;2.35;;;11.70;99.90;;;;;;4955884;28;20063;-76
2023/03/21 10:21:48;;;;;;;4.60;2.78;;;11.70;99.90;;;;;;4959330;28;20075;-77
2023/03/21 10:24:30;;;;;;;5.28;2.40;;;11.80;99.90;;;;;;4958783;28;20050;-77
2023/03/21 10:26:57;;;;;;;4.57;3.67;;;11.80;99.90;;;;;;4956132;28;20414;-77
2023/03/21 10:29:29;;;;;;;3.92;2.20;;;11.90;99.90;;;;;;4955024;28;20579;-77
2023/03/21 10:31:55;;;;;;;3.78;3.20;;;11.90;99.90;;;;;;4957121;28;20566;-77
2023/03/21 10:34:55;;;;;;;6.38;4.32;;;12.00;99.90;;;;;;4957572;28;20044;-78
2023/03/21 10:37:27;;;;;;;11.15;5.93;;;12.00;99.90;;;;;;4966402;28;20059;-77
2023/03/21 10:39:54;;;;;;;7.90;5.30;;;12.10;99.90;;;;;;4965687;28;20047;-76
2023/03/21 10:42:25;;;;;;;6.20;4.05;;;12.10;99.90;;;;;;4956374;28;20549;-77
2023/03/21 10:44:55;;;;;;;4.93;3.35;;;12.20;99.90;;;;;;4955005;28;20055;-78
2023/03/21 10:47:33;;;;;;;7.55;3.47;;;12.20;99.90;;;;;;4960431;28;20051;-77
2023/03/21 10:50:04;;;;;;;8.93;5.18;;;12.30;99.90;;;;;;4955261;28;20049;-77
2023/03/21 10:52:37;;;;;;;4.82;3.45;;;12.40;99.90;;;;;;4958201;28;20058;-77
2023/03/21 10:55:21;;;;;;;6.32;3.45;;;12.50;99.90;;;;;;4954906;28;20133;-78
2023/03/21 10:57:57;;;;;;;3.35;2.30;;;12.60;99.90;;;;;;4958759;28;20071;-77
2023/03/21 11:00:28;;;;;;;7.63;2.33;;;12.70;99.90;;;;;;4952027;28;20425;-77
2023/03/21 11:02:56;;;;;;;2.55;1.33;;;12.90;99.90;;;;;;4953078;28;20427;-77
2023/03/21 11:05:32;;;;;;;1.85;1.45;;;13.00;99.90;;;;;;4955318;28;20053;-77
2023/03/21 11:08:03;;;;;;;3.00;1.67;;;13.10;99.90;;;;;;4949694;28;20039;-77
2023/03/21 11:10:33;;;;;;;3.58;1.80;;;13.30;99.90;;;;;;4948827;28;20058;-77
2023/03/21 11:13:07;;;;;;;2.40;1.27;;;13.40;99.90;;;;;;4952529;28;20503;-78
2023/03/21 11:15:36;;;;;;;3.78;1.65;;;13.50;99.90;;;;;;4955271;28;20130;-77
2023/03/21 11:18:18;;;;;;;3.08;1.33;;;13.50;99.90;;;;;;4952345;28;20047;-77
2023/03/21 11:20:58;;;;;;;2.72;1.67;;;13.60;99.90;;;;;;4955295;28;20768;-77
2023/03/21 11:23:28;;;;;;;4.00;1.90;;;13.70;99.90;;;;;;4947542;28;20059;-77
2023/03/21 11:25:57;;;;;;;3.03;1.40;;;13.80;99.90;;;;;;4956322;28;20353;-77
2023/03/21 11:28:32;;;;;;;3.67;1.48;;;13.90;99.90;;;;;;4958081;28;20068;-76
2023/03/21 11:31:00;;;;;;;4.05;1.83;;;14.00;99.90;;;;;;4954684;28;20043;-77
2023/03/21 11:33:43;;;;;;;4.80;1.20;;;14.10;99.90;;;;;;4966053;28;20051;-77
2023/03/21 11:36:18;;;;;;;3.15;1.45;;;14.20;99.90;;;;;;4952415;28;20062;-77
2023/03/21 11:38:56;;;;;;;1.42;1.20;;;14.30;99.90;;;;;;4943944;28;20157;-76
2023/03/21 11:41:33;;;;;;;1.67;1.30;;;14.40;99.90;;;;;;4950236;28;20507;-77
2023/03/21 11:44:01;;;;;;;3.92;1.10;;;14.60;99.90;;;;;;4953052;28;20146;-77
2023/03/21 11:46:30;;;;;;;2.03;1.13;;;14.70;99.90;;;;;;4965965;28;20062;-77
2023/03/21 11:48:59;;;;;;;3.38;1.27;;;14.80;99.90;;;;;;4960461;28;20227;-77
2023/03/21 11:51:50;;;;;;;0.93;0.80;;;14.80;99.90;;;;;;4954873;28;20550;-76
2023/03/21 11:54:26;;;;;;;1.38;0.90;;;14.90;99.90;;;;;;4955010;28;20046;-77
2023/03/21 11:57:02;;;;;;;1.85;0.80;;;15.00;99.90;;;;;;4952734;28;20051;-77
2023/03/21 11:59:39;;;;;;;1.90;1.02;;;15.10;99.90;;;;;;4954682;28;20179;-77
2023/03/21 12:02:43;;;;;;;3.90;1.08;;;15.20;99.90;;;;;;4971369;28;20047;-77
2023/03/21 12:05:22;;;;;;;2.45;1.20;;;15.30;99.90;;;;;;4951019;28;20663;-77
2023/03/21 12:08:07;;;;;;;2.35;0.63;;;15.40;99.90;;;;;;4958623;28;20046;-77
2023/03/21 12:11:03;;;;;;;0.90;0.70;;;15.50;99.90;;;;;;4949339;28;20130;-77
2023/03/21 12:13:42;;;;;;;1.10;0.60;;;15.50;99.90;;;;;;4955993;28;20066;-77
2023/03/21 12:16:21;;;;;;;2.25;1.13;;;15.60;99.90;;;;;;4960585;28;20043;-78
2023/03/21 12:19:05;;;;;;;1.90;1.27;;;15.70;99.90;;;;;;4952711;28;20080;-77
2023/03/21 12:21:50;;;;;;;1.25;0.77;;;15.80;99.90;;;;;;4952755;28;20050;-77
2023/03/21 12:24:28;;;;;;;1.77;1.20;;;15.90;99.90;;;;;;4954957;28;20431;-77
2023/03/21 12:27:13;;;;;;;2.15;1.00;;;16.00;99.90;;;;;;4955822;28;20057;-78
2023/03/21 12:29:52;;;;;;;1.73;0.77;;;16.00;99.90;;;;;;4968800;28;20055;-77
2023/03/21 12:32:32;;;;;;;1.55;0.77;;;16.00;99.90;;;;;;4953189;28;20065;-77
2023/03/21 12:35:35;;;;;;;1.10;0.63;;;16.10;99.90;;;;;;4960329;28;20073;-77
2023/03/21 12:38:35;;;;;;;0.77;0.75;;;16.10;99.90;;;;;;4952476;28;20047;-77
2023/03/21 12:41:32;;;;;;;1.00;0.80;;;16.10;99.90;;;;;;4956079;28;20055;-77
2023/03/21 12:44:09;;;;;;;1.17;0.90;;;16.10;99.90;;;;;;4957223;28;20051;-76
2023/03/21 12:47:05;;;;;;;3.53;0.70;;;16.10;99.90;;;;;;4959774;28;20463;-77
2023/03/21 12:49:40;;;;;;;2.25;0.80;;;16.10;99.90;;;;;;4960181;28;20093;-77
2023/03/21 12:52:28;;;;;;;0.95;0.70;;;16.10;99.90;;;;;;4953239;28;20072;-77
2023/03/21 12:55:20;;;;;;;2.35;0.70;;;16.10;99.90;;;;;;4959422;28;20043;-77
2023/03/21 12:58:05;;;;;;;1.45;0.93;;;16.20;99.90;;;;;;4958800;28;20074;-77
2023/03/21 13:00:55;;;;;;;1.40;0.70;;;16.20;99.90;;;;;;4960501;28;20472;-78
2023/03/21 13:03:42;;;;;;;1.67;0.83;;;16.30;99.90;;;;;;4961206;28;20058;-78
2023/03/21 13:06:16;;;;;;;1.45;0.93;;;16.30;99.90;;;;;;4963163;28;20051;-78
2023/03/21 13:09:02;;;;;;;1.38;0.77;;;16.40;99.90;;;;;;4966701;28;20498;-78
2023/03/21 13:11:30;;;;;;;1.98;1.20;;;16.50;99.90;;;;;;4956373;28;20078;-77
2023/03/21 13:14:24;;;;;;;0.85;0.85;;;16.50;99.90;;;;;;4954973;28;20499;-79
2023/03/21 13:17:05;;;;;;;1.10;0.80;;;16.60;99.90;;;;;;4960484;28;20053;-78
2023/03/21 13:19:42;;;;;;;1.25;1.08;;;16.60;99.90;;;;;;4956594;28;20054;-78
2023/03/21 13:22:27;;;;;;;1.92;0.90;;;16.60;99.90;;;;;;4954412;28;20040;-77
2023/03/21 13:25:04;;;;;;;1.00;0.77;;;16.60;99.90;;;;;;4956832;28;20050;-78